createdAt,value
2022-11-15T00:00:22.674Z,13.50
2022-11-15T00:02:53.204Z,13.50
2022-11-15T00:05:23.596Z,13.50
2022-11-15T00:07:56.165Z,13.50
2022-11-15T00:10:26.736Z,13.50
2022-11-15T00:12:57.377Z,13.50
2022-11-15T00:15:27.148Z,13.50
2022-11-15T00:17:57.616Z,13.50
2022-11-15T00:20:28.062Z,13.40
2022-11-15T00:22:58.458Z,13.50
2022-11-15T00:25:30.343Z,13.40
2022-11-15T00:28:01.591Z,13.40
2022-11-15T00:30:32.357Z,13.50
2022-11-15T00:33:07.092Z,13.40
2022-11-15T00:35:38.841Z,13.50
2022-11-15T00:38:09.121Z,13.40
2022-11-15T00:40:40.620Z,13.50
2022-11-15T00:43:11.004Z,13.40
2022-11-15T00:45:41.687Z,13.30
2022-11-15T00:48:12.092Z,13.30
2022-11-15T00:50:43.062Z,13.40
2022-11-15T00:53:13.678Z,13.30
2022-11-15T00:55:43.524Z,13.40
2022-11-15T00:58:14.060Z,13.40
2022-11-15T01:00:44.616Z,13.40
2022-11-15T01:03:15.141Z,13.40
2022-11-15T01:05:45.599Z,13.40
2022-11-15T01:08:19.180Z,13.40
2022-11-15T01:10:49.716Z,13.50
2022-11-15T01:13:20.313Z,13.50
2022-11-15T01:15:50.701Z,13.50
2022-11-15T01:18:21.264Z,13.60
2022-11-15T01:20:51.670Z,13.70
2022-11-15T01:23:22.688Z,13.70
2022-11-15T01:25:53.147Z,13.70
2022-11-15T01:28:23.761Z,13.80
2022-11-15T01:30:53.568Z,13.90
2022-11-15T01:33:23.986Z,13.90
2022-11-15T01:35:54.519Z,14.00
2022-11-15T01:38:25.694Z,14.00
2022-11-15T01:40:56.109Z,14.10
2022-11-15T01:43:31.849Z,14.10
2022-11-15T01:46:19.385Z,14.10
2022-11-15T01:48:50.093Z,14.20
2022-11-15T01:51:22.988Z,14.30
2022-11-15T01:53:57.952Z,14.40
2022-11-15T01:56:33.023Z,14.50
2022-11-15T01:59:07.997Z,14.60
2022-11-15T02:01:38.981Z,14.70
2022-11-15T02:04:17.548Z,14.80
2022-11-15T02:06:50.587Z,15.00
2022-11-15T02:09:21.700Z,15.10
2022-11-15T02:11:53.845Z,15.30
2022-11-15T02:14:25.113Z,15.40
2022-11-15T02:17:34.260Z,15.50
2022-11-15T02:20:43.573Z,15.60
2022-11-15T02:23:43.179Z,15.70
2022-11-15T02:26:45.481Z,15.70
2022-11-15T02:29:41.194Z,15.70
2022-11-15T02:32:27.295Z,15.70
2022-11-15T02:35:34.226Z,15.80
2022-11-15T02:38:16.489Z,15.80
2022-11-15T02:41:10.518Z,15.80
2022-11-15T02:44:04.971Z,15.80
2022-11-15T02:47:03.920Z,15.80
2022-11-15T02:49:38.414Z,15.80
2022-11-15T02:52:08.897Z,15.90
2022-11-15T02:54:38.881Z,16.00
2022-11-15T02:57:16.164Z,16.10
2022-11-15T03:00:12.945Z,16.20
2022-11-15T03:03:15.889Z,16.30
2022-11-15T03:06:07.884Z,16.40
2022-11-15T03:09:00.767Z,16.40
2022-11-15T03:11:33.287Z,16.40
2022-11-15T03:14:26.769Z,16.40
2022-11-15T03:17:26.438Z,16.60
2022-11-15T03:20:00.748Z,16.60
2022-11-15T03:22:36.714Z,16.70
2022-11-15T03:25:10.111Z,16.80
2022-11-15T03:27:44.325Z,16.90
2022-11-15T03:30:16.002Z,17.00
2022-11-15T03:32:55.143Z,17.10
2022-11-15T03:35:27.814Z,17.10
2022-11-15T03:38:07.825Z,17.10
2022-11-15T03:40:43.452Z,17.20
2022-11-15T03:43:39.538Z,17.20
2022-11-15T03:46:19.366Z,17.30
2022-11-15T03:48:57.658Z,17.40
2022-11-15T03:51:27.709Z,17.50
2022-11-15T03:53:57.679Z,17.60
2022-11-15T03:56:27.626Z,17.70
2022-11-15T03:58:57.657Z,17.80
2022-11-15T04:01:27.868Z,17.80
2022-11-15T04:03:57.910Z,17.70
2022-11-15T04:06:27.873Z,17.70
2022-11-15T04:08:57.836Z,17.70
2022-11-15T04:11:27.867Z,17.80
2022-11-15T04:13:57.707Z,18.00
2022-11-15T04:16:27.601Z,18.20
2022-11-15T04:19:09.885Z,18.30
2022-11-15T04:21:58.937Z,18.50
2022-11-15T04:24:28.880Z,18.60
2022-11-15T04:26:58.828Z,18.60
2022-11-15T04:29:39.541Z,18.70
2022-11-15T04:32:10.748Z,18.70
2022-11-15T04:34:41.209Z,18.70
2022-11-15T04:37:18.735Z,18.80
2022-11-15T04:39:48.733Z,18.90
2022-11-15T04:42:18.667Z,19.10
2022-11-15T04:44:49.167Z,19.30
2022-11-15T04:47:19.096Z,19.10
2022-11-15T04:49:49.015Z,19.00
2022-11-15T04:52:19.235Z,19.00
2022-11-15T04:54:49.315Z,19.20
2022-11-15T04:57:19.579Z,19.20
2022-11-15T04:59:49.735Z,19.20
2022-11-15T05:02:19.763Z,19.30
2022-11-15T05:04:50.229Z,19.40
2022-11-15T05:07:20.201Z,19.50
2022-11-15T05:09:50.216Z,19.70
2022-11-15T05:12:20.257Z,19.70
2022-11-15T05:14:50.162Z,19.70
2022-11-15T05:17:20.066Z,19.90
2022-11-15T05:19:50.778Z,20.00
2022-11-15T05:22:21.306Z,20.10
2022-11-15T05:24:51.288Z,20.20
2022-11-15T05:27:21.527Z,20.20
2022-11-15T05:29:50.776Z,20.30
2022-11-15T05:32:20.972Z,20.30
2022-11-15T05:34:50.366Z,20.40
2022-11-15T05:37:20.867Z,20.50
2022-11-15T05:39:50.885Z,20.60
2022-11-15T05:42:22.357Z,20.60
2022-11-15T05:44:53.473Z,20.60
2022-11-15T05:47:27.720Z,20.50
2022-11-15T05:49:58.359Z,20.60
2022-11-15T05:52:33.812Z,20.60
2022-11-15T05:55:04.737Z,20.60
2022-11-15T05:57:34.918Z,20.70
2022-11-15T06:00:04.549Z,20.80
2022-11-15T06:02:35.726Z,20.80
2022-11-15T06:05:06.035Z,20.80
2022-11-15T06:07:35.498Z,20.90
2022-11-15T06:10:05.692Z,20.90
2022-11-15T06:12:35.714Z,21.00
2022-11-15T06:15:05.808Z,21.10
2022-11-15T06:17:35.781Z,21.20
2022-11-15T06:20:06.873Z,21.10
2022-11-15T06:22:36.826Z,21.10
2022-11-15T06:25:07.151Z,21.30
2022-11-15T06:27:37.176Z,21.30
2022-11-15T06:30:07.477Z,21.40
2022-11-15T06:32:37.400Z,21.20
2022-11-15T06:35:07.845Z,21.30
2022-11-15T06:37:37.710Z,21.30
2022-11-15T06:40:08.182Z,20.90
2022-11-15T06:42:40.527Z,21.30
2022-11-15T06:45:10.897Z,21.30
2022-11-15T06:47:49.524Z,21.40
2022-11-15T06:50:19.540Z,21.50
2022-11-15T06:52:49.970Z,21.60
2022-11-15T06:55:20.093Z,21.70
2022-11-15T06:57:51.093Z,21.80
2022-11-15T07:00:23.214Z,21.80
2022-11-15T07:02:53.292Z,21.90
2022-11-15T07:05:22.633Z,22.00
2022-11-15T07:07:57.562Z,22.00
2022-11-15T07:10:28.679Z,22.00
2022-11-15T07:12:59.956Z,22.00
2022-11-15T07:15:30.164Z,22.00
2022-11-15T07:18:03.695Z,22.10
2022-11-15T07:20:33.589Z,22.00
2022-11-15T07:23:06.411Z,22.00
2022-11-15T07:25:37.178Z,22.10
2022-11-15T07:28:07.665Z,22.00
2022-11-15T07:30:41.241Z,22.00
2022-11-15T07:33:13.856Z,22.00
2022-11-15T07:35:45.508Z,22.10
2022-11-15T07:38:17.436Z,22.10
2022-11-15T07:40:47.526Z,22.20
2022-11-15T07:43:16.830Z,22.30
2022-11-15T07:45:48.993Z,22.30
2022-11-15T07:48:18.910Z,22.20
2022-11-15T07:50:48.809Z,22.30
2022-11-15T07:53:19.539Z,22.30
2022-11-15T07:55:49.624Z,22.20
2022-11-15T07:58:23.113Z,22.20
2022-11-15T08:00:53.148Z,22.20
2022-11-15T08:03:23.233Z,22.10
2022-11-15T08:05:55.010Z,22.00
2022-11-15T08:08:25.027Z,22.10
2022-11-15T08:10:55.375Z,22.10
2022-11-15T08:13:25.456Z,22.00
2022-11-15T08:15:57.740Z,22.10
2022-11-15T08:18:27.990Z,22.10
2022-11-15T08:21:03.545Z,22.20
2022-11-15T08:23:36.396Z,22.00
2022-11-15T08:26:07.828Z,22.00
2022-11-15T08:28:37.967Z,21.90
2022-11-15T08:31:07.762Z,21.90
2022-11-15T08:33:38.610Z,21.90
2022-11-15T08:36:08.749Z,22.00
2022-11-15T08:38:38.564Z,22.10
2022-11-15T08:41:10.239Z,22.00
2022-11-15T08:43:40.638Z,22.00
2022-11-15T08:46:16.422Z,21.90
2022-11-15T08:48:46.694Z,22.00
2022-11-15T08:51:17.403Z,22.00
2022-11-15T08:53:47.980Z,21.90
2022-11-15T08:56:19.231Z,21.90
2022-11-15T08:58:49.992Z,21.90
2022-11-15T09:01:23.576Z,21.90
2022-11-15T09:03:54.233Z,21.80
2022-11-15T09:06:24.793Z,21.80
2022-11-15T09:08:55.537Z,21.80
2022-11-15T09:11:27.075Z,21.80
2022-11-15T09:13:57.717Z,21.70
2022-11-15T09:16:28.366Z,21.70
2022-11-15T09:18:58.743Z,21.70
2022-11-15T09:21:29.220Z,21.70
2022-11-15T09:23:59.869Z,21.70
2022-11-15T09:26:30.613Z,21.60
2022-11-15T09:29:01.067Z,21.60
2022-11-15T09:31:32.786Z,21.50
2022-11-15T09:34:03.214Z,21.40
2022-11-15T09:36:33.766Z,21.40
2022-11-15T09:39:04.213Z,21.30
2022-11-15T09:42:09.110Z,21.30
2022-11-15T09:45:00.487Z,21.40
2022-11-15T09:48:01.159Z,21.30
2022-11-15T09:50:45.459Z,21.20
2022-11-15T09:53:28.675Z,21.10
2022-11-15T09:56:28.244Z,21.00
2022-11-15T09:59:25.514Z,20.90
2022-11-15T10:02:28.840Z,20.80
2022-11-15T10:05:02.368Z,20.80
2022-11-15T10:07:48.435Z,20.80
2022-11-15T10:10:36.613Z,20.80
2022-11-15T10:13:07.824Z,20.80
2022-11-15T10:15:38.706Z,20.80
2022-11-15T10:18:31.643Z,20.70
2022-11-15T10:21:11.156Z,20.70
2022-11-15T10:23:41.494Z,20.60
2022-11-15T10:26:13.677Z,20.60
2022-11-15T10:28:44.223Z,20.60
2022-11-15T10:31:27.328Z,20.60
2022-11-15T10:34:18.291Z,20.50
2022-11-15T10:36:50.803Z,20.50
2022-11-15T10:39:21.300Z,20.40
2022-11-15T10:41:52.665Z,20.40
2022-11-15T10:44:28.159Z,20.40
2022-11-15T10:47:25.596Z,20.30
2022-11-15T10:50:06.476Z,20.30
2022-11-15T10:52:39.649Z,20.20
2022-11-15T10:55:29.005Z,20.20
2022-11-15T10:58:10.144Z,20.10
2022-11-15T11:00:42.591Z,20.00
2022-11-15T11:03:32.437Z,20.00
2022-11-15T11:06:20.475Z,20.00
2022-11-15T11:09:09.089Z,20.00
2022-11-15T11:11:56.018Z,19.90
2022-11-15T11:14:34.926Z,19.80
2022-11-15T11:17:28.403Z,19.80
2022-11-15T11:20:17.670Z,19.70
2022-11-15T11:23:17.017Z,19.60
2022-11-15T11:26:14.621Z,19.60
2022-11-15T11:29:17.251Z,19.50
2022-11-15T11:32:19.542Z,19.50
2022-11-15T11:35:15.270Z,19.40
2022-11-15T11:38:04.606Z,19.40
2022-11-15T11:40:48.404Z,19.30
2022-11-15T11:43:36.382Z,19.30
2022-11-15T11:46:30.868Z,19.20
2022-11-15T11:49:11.969Z,19.20
2022-11-15T11:52:06.918Z,19.10
2022-11-15T11:54:57.625Z,19.10
2022-11-15T11:57:52.096Z,19.00
2022-11-15T12:00:27.622Z,18.90
2022-11-15T12:03:20.131Z,18.90
2022-11-15T12:06:04.268Z,18.90
2022-11-15T12:08:49.832Z,18.90
2022-11-15T12:11:46.513Z,18.90
2022-11-15T12:14:40.022Z,18.90
2022-11-15T12:17:14.778Z,18.80
2022-11-15T12:19:45.956Z,18.80
2022-11-15T12:22:24.342Z,18.80
2022-11-15T12:25:18.077Z,18.70
2022-11-15T12:27:56.262Z,18.70
2022-11-15T12:30:29.405Z,18.60
2022-11-15T12:33:03.979Z,18.60
2022-11-15T12:36:00.804Z,18.60
2022-11-15T12:39:01.619Z,18.60
2022-11-15T12:41:34.102Z,18.60
2022-11-15T12:44:05.824Z,18.50
2022-11-15T12:47:02.988Z,18.50
2022-11-15T12:49:48.575Z,18.50
2022-11-15T12:52:19.729Z,18.40
2022-11-15T12:54:59.967Z,18.40
2022-11-15T12:57:35.573Z,18.30
2022-11-15T13:00:44.896Z,18.20
2022-11-15T13:03:26.451Z,18.20
2022-11-15T13:06:02.417Z,18.10
2022-11-15T13:08:43.617Z,18.10
2022-11-15T13:11:43.733Z,18.00
2022-11-15T13:14:43.757Z,18.10
2022-11-15T13:17:30.486Z,18.10
2022-11-15T13:20:24.775Z,18.10
2022-11-15T13:23:19.101Z,18.10
2022-11-15T13:26:15.902Z,18.10
2022-11-15T13:28:54.969Z,18.20
2022-11-15T13:31:46.074Z,18.10
2022-11-15T13:34:53.248Z,18.10
2022-11-15T13:37:34.912Z,18.10
2022-11-15T13:40:23.778Z,18.10
2022-11-15T13:42:54.427Z,18.00
2022-11-15T13:45:25.295Z,18.00
2022-11-15T13:47:59.832Z,18.00
2022-11-15T13:50:35.760Z,18.10
2022-11-15T13:53:08.824Z,17.90
2022-11-15T13:55:40.301Z,18.00
2022-11-15T13:58:14.623Z,17.90
2022-11-15T14:00:48.495Z,17.90
2022-11-15T14:03:27.782Z,17.80
2022-11-15T14:06:10.798Z,17.80
2022-11-15T14:08:42.002Z,17.80
2022-11-15T14:11:22.479Z,17.70
2022-11-15T14:14:07.340Z,17.70
2022-11-15T14:16:44.653Z,17.70
2022-11-15T14:19:37.278Z,17.70
2022-11-15T14:22:24.704Z,17.70
2022-11-15T14:25:28.299Z,17.70
2022-11-15T14:28:17.534Z,17.60
2022-11-15T14:30:52.937Z,17.60
2022-11-15T14:33:37.903Z,17.50
2022-11-15T14:36:18.925Z,17.50
2022-11-15T14:38:50.410Z,17.50
2022-11-15T14:41:26.223Z,17.40
2022-11-15T14:43:57.611Z,17.40
2022-11-15T14:46:28.039Z,17.40
2022-11-15T14:48:57.931Z,17.40
2022-11-15T14:51:29.416Z,17.30
2022-11-15T14:53:59.915Z,17.40
2022-11-15T14:56:30.505Z,17.30
2022-11-15T14:59:01.522Z,17.30
2022-11-15T15:01:32.054Z,17.30
2022-11-15T15:04:02.558Z,17.20
2022-11-15T15:06:33.846Z,17.20
2022-11-15T15:09:04.206Z,17.10
2022-11-15T15:11:35.741Z,17.10
2022-11-15T15:14:06.213Z,17.10
2022-11-15T15:16:36.572Z,17.10
2022-11-15T15:19:06.407Z,17.00
2022-11-15T15:21:37.755Z,17.00
2022-11-15T15:24:08.621Z,17.10
2022-11-15T15:26:39.745Z,17.10
2022-11-15T15:29:11.913Z,17.00
2022-11-15T15:31:42.504Z,17.00
2022-11-15T15:34:16.853Z,16.90
2022-11-15T15:36:47.710Z,16.90
2022-11-15T15:39:18.590Z,16.90
2022-11-15T15:41:51.284Z,16.90
2022-11-15T15:44:25.166Z,16.80
2022-11-15T15:46:55.771Z,16.80
2022-11-15T15:49:26.171Z,16.80
2022-11-15T15:51:56.608Z,16.70
2022-11-15T15:54:27.099Z,16.70
2022-11-15T15:56:56.885Z,16.60
2022-11-15T15:59:28.701Z,16.70
2022-11-15T16:02:00.572Z,16.70
2022-11-15T16:04:31.691Z,16.70
2022-11-15T16:07:04.450Z,16.60
2022-11-15T16:09:53.804Z,16.60
2022-11-15T16:12:24.404Z,16.60
2022-11-15T16:14:54.931Z,16.60
2022-11-15T16:17:31.392Z,16.60
2022-11-15T16:20:04.891Z,16.60
2022-11-15T16:22:35.367Z,16.50
2022-11-15T16:25:07.147Z,16.60
2022-11-15T16:27:37.886Z,16.50
2022-11-15T16:30:09.146Z,16.50
2022-11-15T16:32:39.584Z,16.50
2022-11-15T16:35:11.514Z,16.50
2022-11-15T16:37:43.777Z,16.40
2022-11-15T16:40:29.785Z,16.50
2022-11-15T16:43:05.001Z,16.50
2022-11-15T16:45:38.588Z,16.50
2022-11-15T16:48:09.155Z,16.50
2022-11-15T16:50:46.048Z,16.50
2022-11-15T16:53:16.483Z,16.40
2022-11-15T16:55:46.897Z,16.40
2022-11-15T16:58:16.677Z,16.40
2022-11-15T17:00:47.369Z,16.30
2022-11-15T17:03:17.751Z,16.30
2022-11-15T17:05:48.112Z,16.20
2022-11-15T17:08:18.915Z,16.20
2022-11-15T17:10:49.313Z,16.10
2022-11-15T17:13:20.746Z,16.10
2022-11-15T17:15:51.124Z,16.10
2022-11-15T17:18:23.397Z,16.10
2022-11-15T17:20:53.796Z,16.10
2022-11-15T17:23:24.279Z,16.10
2022-11-15T17:26:17.654Z,16.10
2022-11-15T17:28:52.045Z,16.10
2022-11-15T17:31:22.560Z,16.10
2022-11-15T17:33:52.513Z,16.10
2022-11-15T17:36:23.354Z,16.10
2022-11-15T17:38:59.251Z,16.00
2022-11-15T17:41:31.879Z,16.00
2022-11-15T17:44:05.080Z,15.90
2022-11-15T17:46:36.220Z,15.80
2022-11-15T17:49:06.634Z,15.80
2022-11-15T17:51:40.278Z,15.70
2022-11-15T17:54:15.306Z,15.70
2022-11-15T17:56:45.923Z,15.70
2022-11-15T17:59:20.112Z,15.70
2022-11-15T18:01:52.297Z,15.70
2022-11-15T18:04:23.206Z,15.70
2022-11-15T18:06:53.744Z,15.70
2022-11-15T18:09:24.002Z,15.70
2022-11-15T18:11:57.258Z,15.60
2022-11-15T18:14:29.282Z,15.60
2022-11-15T18:16:59.934Z,15.60
2022-11-15T18:19:29.751Z,15.50
2022-11-15T18:22:01.483Z,15.50
2022-11-15T18:24:37.062Z,15.50
2022-11-15T18:27:09.083Z,15.50
2022-11-15T18:29:39.950Z,15.50
2022-11-15T18:32:14.841Z,15.50
2022-11-15T18:34:45.337Z,15.50
2022-11-15T18:37:16.665Z,15.50
2022-11-15T18:39:52.532Z,15.40
2022-11-15T18:42:24.509Z,15.40
2022-11-15T18:45:03.572Z,15.30
2022-11-15T18:47:34.083Z,15.30
2022-11-15T18:50:04.056Z,15.30
2022-11-15T18:52:34.856Z,15.30
2022-11-15T18:55:06.040Z,15.40
2022-11-15T18:57:37.028Z,15.30
2022-11-15T19:00:07.894Z,15.30
2022-11-15T19:02:38.417Z,15.30
2022-11-15T19:05:09.278Z,15.30
2022-11-15T19:07:40.283Z,15.30
2022-11-15T19:10:13.079Z,15.30
2022-11-15T19:12:43.512Z,15.30
2022-11-15T19:15:14.200Z,15.20
2022-11-15T19:17:44.565Z,15.20
2022-11-15T19:20:14.968Z,15.20
2022-11-15T19:22:45.409Z,15.20
2022-11-15T19:25:15.784Z,15.20
2022-11-15T19:27:46.140Z,15.20
2022-11-15T19:30:16.727Z,15.10
2022-11-15T19:32:46.398Z,15.10
2022-11-15T19:35:16.798Z,15.00
2022-11-15T19:37:47.086Z,15.00
2022-11-15T19:40:18.042Z,15.00
2022-11-15T19:42:48.352Z,15.00
2022-11-15T19:45:18.675Z,15.00
2022-11-15T19:47:49.057Z,15.00
2022-11-15T19:50:19.838Z,15.10
2022-11-15T19:52:50.130Z,15.00
2022-11-15T19:55:20.509Z,15.00
2022-11-15T19:57:50.843Z,15.00
2022-11-15T20:00:21.868Z,15.00
2022-11-15T20:02:52.188Z,14.90
2022-11-15T20:05:22.521Z,14.90
2022-11-15T20:07:52.977Z,14.90
2022-11-15T20:10:23.244Z,14.90
2022-11-15T20:12:53.611Z,14.90
2022-11-15T20:15:24.001Z,14.80
2022-11-15T20:17:54.456Z,14.90
2022-11-15T20:20:24.290Z,14.80
2022-11-15T20:22:55.207Z,14.80
2022-11-15T20:25:25.541Z,14.80
2022-11-15T20:27:55.885Z,14.80
2022-11-15T20:30:26.401Z,14.80
2022-11-15T20:32:56.051Z,14.70
2022-11-15T20:35:26.740Z,14.70
2022-11-15T20:37:57.146Z,14.70
2022-11-15T20:40:27.463Z,14.70
2022-11-15T20:42:57.940Z,14.70
2022-11-15T20:45:28.260Z,14.60
2022-11-15T20:47:59.987Z,14.60
2022-11-15T20:50:43.767Z,14.60
2022-11-15T20:53:16.135Z,14.60
2022-11-15T20:55:50.135Z,14.50
2022-11-15T20:58:21.079Z,14.60
2022-11-15T21:00:51.518Z,14.60
2022-11-15T21:03:21.869Z,14.60
2022-11-15T21:05:52.234Z,14.50
2022-11-15T21:08:22.619Z,14.50
2022-11-15T21:11:11.912Z,14.50
2022-11-15T21:13:43.051Z,14.50
2022-11-15T21:16:13.380Z,14.50
2022-11-15T21:18:43.748Z,14.50
2022-11-15T21:21:14.068Z,14.50
2022-11-15T21:23:44.467Z,14.50
2022-11-15T21:26:14.790Z,14.50
2022-11-15T21:28:45.406Z,14.50
2022-11-15T21:31:15.161Z,14.50
2022-11-15T21:33:45.750Z,14.40
2022-11-15T21:36:16.070Z,14.40
2022-11-15T21:38:46.381Z,14.40
2022-11-15T21:41:16.704Z,14.30
2022-11-15T21:43:47.066Z,14.30
2022-11-15T21:46:17.938Z,14.30
2022-11-15T21:48:48.274Z,14.30
2022-11-15T21:51:18.641Z,14.30
2022-11-15T21:53:48.911Z,14.30
2022-11-15T21:56:19.475Z,14.20
2022-11-15T21:58:49.170Z,14.20
2022-11-15T22:01:35.007Z,14.20
2022-11-15T22:04:05.347Z,14.30
2022-11-15T22:06:36.564Z,14.20
2022-11-15T22:09:08.650Z,14.20
2022-11-15T22:11:39.409Z,14.20
2022-11-15T22:14:09.761Z,14.20
2022-11-15T22:16:40.115Z,14.20
2022-11-15T22:19:10.432Z,14.20
2022-11-15T22:21:42.166Z,14.10
2022-11-15T22:24:12.758Z,14.10
2022-11-15T22:26:43.203Z,14.10
2022-11-15T22:29:13.515Z,14.00
2022-11-15T22:31:43.849Z,14.00
2022-11-15T22:34:14.178Z,14.00
2022-11-15T22:37:18.116Z,14.00
2022-11-15T22:39:37.807Z,14.10
2022-11-15T22:42:08.355Z,14.00
2022-11-15T22:44:38.051Z,14.00
2022-11-15T22:47:08.396Z,14.00
2022-11-15T22:49:38.846Z,14.00
2022-11-15T22:52:09.229Z,14.00
2022-11-15T22:54:39.902Z,14.00
2022-11-15T22:57:09.623Z,14.00
2022-11-15T22:59:39.933Z,13.90
2022-11-15T23:02:10.380Z,14.00
2022-11-15T23:04:40.775Z,13.90
2022-11-15T23:07:11.181Z,13.90
2022-11-15T23:09:41.604Z,13.90
2022-11-15T23:12:29.163Z,13.90
2022-11-15T23:14:59.966Z,13.90
2022-11-15T23:17:30.304Z,13.90
2022-11-15T23:20:11.108Z,13.90
2022-11-15T23:22:49.963Z,13.90
2022-11-15T23:25:20.413Z,13.90
2022-11-15T23:27:50.762Z,13.90
2022-11-15T23:34:02.558Z,13.90
2022-11-15T23:36:32.127Z,13.90
2022-11-15T23:39:01.501Z,13.80
2022-11-15T23:41:30.919Z,13.90
2022-11-15T23:44:00.407Z,13.80
2022-11-15T23:46:29.811Z,13.80
2022-11-15T23:48:59.503Z,13.80
2022-11-15T23:51:29.195Z,13.80
2022-11-15T23:53:59.050Z,13.80
2022-11-15T23:56:28.978Z,13.80
2022-11-15T23:58:58.489Z,13.80
